createdAt,value
2018-12-13T00:01:16.563Z,-0.60
2018-12-13T00:03:54.517Z,-0.60
2018-12-13T00:06:33.498Z,-0.50
2018-12-13T00:09:10.657Z,-0.50
2018-12-13T00:11:48.434Z,-0.50
2018-12-13T00:14:24.581Z,-0.50
2018-12-13T00:17:00.503Z,-0.50
2018-12-13T00:19:36.363Z,-0.50
2018-12-13T00:22:12.386Z,-0.60
2018-12-13T00:24:48.136Z,-0.60
2018-12-13T00:27:24.060Z,-0.70
2018-12-13T00:30:00.133Z,-0.70
2018-12-13T00:32:35.908Z,-0.70
2018-12-13T00:35:11.866Z,-0.70
2018-12-13T00:37:47.664Z,-0.80
2018-12-13T00:40:23.525Z,-0.80
2018-12-13T00:42:59.502Z,-0.80
2018-12-13T00:45:35.193Z,-0.70
2018-12-13T00:48:11.411Z,-0.70
2018-12-13T00:50:47.372Z,-0.70
2018-12-13T00:53:23.188Z,-0.70
2018-12-13T00:55:59.176Z,-0.70
2018-12-13T00:58:34.969Z,-0.70
2018-12-13T01:01:10.894Z,-0.70
2018-12-13T01:03:47.167Z,-0.60
2018-12-13T01:06:22.844Z,-0.60
2018-12-13T01:08:58.703Z,-0.60
2018-12-13T01:11:34.690Z,-0.50
2018-12-13T01:14:10.475Z,-0.50
2018-12-13T01:16:46.462Z,-0.40
2018-12-13T01:19:22.288Z,-0.40
2018-12-13T01:21:58.205Z,-0.40
2018-12-13T01:24:34.100Z,-0.40
2018-12-13T01:27:24.832Z,-0.40
2018-12-13T01:30:01.138Z,-0.30
2018-12-13T01:32:38.339Z,-0.30
2018-12-13T01:35:14.190Z,-0.30
2018-12-13T01:37:50.081Z,-0.30
2018-12-13T01:40:26.087Z,-0.30
2018-12-13T01:43:01.974Z,-0.30
2018-12-13T01:45:38.007Z,-0.20
2018-12-13T01:48:13.925Z,-0.20
2018-12-13T01:50:50.046Z,-0.20
2018-12-13T01:53:25.937Z,-0.20
2018-12-13T01:56:01.835Z,-0.20
2018-12-13T01:58:37.694Z,-0.20
2018-12-13T02:01:13.608Z,-0.20
2018-12-13T02:03:49.617Z,-0.20
2018-12-13T02:06:25.618Z,-0.20
2018-12-13T02:09:01.343Z,-0.20
2018-12-13T02:11:37.132Z,-0.20
2018-12-13T02:14:13.054Z,-0.10
2018-12-13T02:16:48.897Z,-0.10
2018-12-13T02:19:25.193Z,-0.10
2018-12-13T02:22:01.285Z,-0.10
2018-12-13T02:24:38.124Z,-0.10
2018-12-13T02:27:14.858Z,-0.10
2018-12-13T02:29:50.580Z,-0.10
2018-12-13T02:32:26.202Z,-0.10
2018-12-13T02:35:02.496Z,-0.10
2018-12-13T02:37:38.032Z,0.00
2018-12-13T02:40:14.117Z,0.00
2018-12-13T02:42:50.918Z,0.00
2018-12-13T02:45:26.802Z,0.00
2018-12-13T02:48:02.550Z,0.00
2018-12-13T02:50:38.443Z,0.00
2018-12-13T02:53:14.676Z,0.00
2018-12-13T02:55:50.474Z,0.00
2018-12-13T02:58:26.336Z,0.00
2018-12-13T03:01:02.353Z,0.00
2018-12-13T03:03:38.105Z,0.00
2018-12-13T03:06:13.711Z,0.00
2018-12-13T03:08:49.561Z,0.10
2018-12-13T03:11:25.363Z,0.10
2018-12-13T03:14:01.345Z,0.10
2018-12-13T03:16:37.395Z,0.10
2018-12-13T03:19:13.093Z,0.10
2018-12-13T03:21:48.929Z,0.10
2018-12-13T03:24:24.790Z,0.10
2018-12-13T03:27:00.799Z,0.10
2018-12-13T03:29:36.535Z,0.10
2018-12-13T03:32:12.403Z,0.10
2018-12-13T03:34:50.610Z,0.10
2018-12-13T03:37:26.915Z,0.20
2018-12-13T03:40:03.095Z,0.10
2018-12-13T03:42:38.987Z,0.20
2018-12-13T03:45:14.863Z,0.20
2018-12-13T03:47:50.613Z,0.20
2018-12-13T03:50:26.768Z,0.20
2018-12-13T03:53:02.470Z,0.20
2018-12-13T03:55:38.239Z,0.20
2018-12-13T03:58:14.351Z,0.20
2018-12-13T04:00:50.345Z,0.20
2018-12-13T04:03:26.358Z,0.20
2018-12-13T04:06:02.496Z,0.20
2018-12-13T04:08:38.390Z,0.20
2018-12-13T04:11:14.147Z,0.20
2018-12-13T04:13:50.109Z,0.20
2018-12-13T04:16:25.688Z,0.20
2018-12-13T04:19:01.767Z,0.20
2018-12-13T04:21:37.477Z,0.20
2018-12-13T04:24:13.260Z,0.20
2018-12-13T04:26:49.162Z,0.30
2018-12-13T04:29:25.369Z,0.30
2018-12-13T04:32:01.290Z,0.30
2018-12-13T04:34:37.042Z,0.30
2018-12-13T04:37:12.860Z,0.30
2018-12-13T04:39:48.829Z,0.30
2018-12-13T04:42:24.727Z,0.30
2018-12-13T04:45:01.065Z,0.30
2018-12-13T04:47:36.687Z,0.30
2018-12-13T04:50:12.597Z,0.30
2018-12-13T04:52:48.401Z,0.30
2018-12-13T04:55:24.397Z,0.30
2018-12-13T04:58:00.229Z,0.30
2018-12-13T05:00:36.947Z,0.30
2018-12-13T05:03:13.486Z,0.40
2018-12-13T05:05:49.624Z,0.40
2018-12-13T05:08:26.493Z,0.40
2018-12-13T05:11:02.566Z,0.40
2018-12-13T05:13:38.173Z,0.40
2018-12-13T05:16:14.296Z,0.40
2018-12-13T05:18:49.943Z,0.50
2018-12-13T05:21:25.728Z,0.50
2018-12-13T05:24:01.668Z,0.50
2018-12-13T05:26:37.601Z,0.50
2018-12-13T05:29:13.720Z,0.50
2018-12-13T05:31:50.730Z,0.50
2018-12-13T05:34:26.551Z,0.50
2018-12-13T05:37:02.550Z,0.50
2018-12-13T05:39:38.228Z,0.50
2018-12-13T05:42:14.158Z,0.50
2018-12-13T05:44:49.927Z,0.50
2018-12-13T05:47:25.801Z,0.50
2018-12-13T05:50:02.083Z,0.50
2018-12-13T05:52:38.113Z,0.50
2018-12-13T05:55:13.907Z,0.50
2018-12-13T05:57:49.756Z,0.60
2018-12-13T06:00:25.596Z,0.60
2018-12-13T06:03:01.527Z,0.50
2018-12-13T06:05:37.201Z,0.60
2018-12-13T06:08:14.269Z,0.60
2018-12-13T06:10:50.192Z,0.60
2018-12-13T06:13:26.153Z,0.60
2018-12-13T06:16:02.204Z,0.60
2018-12-13T06:18:39.169Z,0.60
2018-12-13T06:21:14.777Z,0.60
2018-12-13T06:23:51.167Z,0.60
2018-12-13T06:26:27.687Z,0.60
2018-12-13T06:29:03.474Z,0.60
2018-12-13T06:31:39.142Z,0.60
2018-12-13T06:34:15.177Z,0.60
2018-12-13T06:36:50.887Z,0.60
2018-12-13T06:39:26.829Z,0.60
2018-12-13T06:42:02.560Z,0.60
2018-12-13T06:44:39.492Z,0.60
2018-12-13T06:47:15.357Z,0.60
2018-12-13T06:49:51.073Z,0.60
2018-12-13T06:52:26.945Z,0.60
2018-12-13T06:55:02.856Z,0.60
2018-12-13T06:57:38.518Z,0.60
2018-12-13T07:00:14.479Z,0.60
2018-12-13T07:02:50.486Z,0.70
2018-12-13T07:05:26.354Z,0.70
2018-12-13T07:08:07.628Z,0.70
2018-12-13T07:10:40.109Z,0.70
2018-12-13T07:13:16.214Z,0.70
2018-12-13T07:15:52.003Z,0.70
2018-12-13T07:18:28.048Z,0.70
2018-12-13T07:21:04.075Z,0.70
2018-12-13T07:23:40.001Z,0.70
2018-12-13T07:26:15.511Z,0.70
2018-12-13T07:28:51.908Z,0.70
2018-12-13T07:31:27.489Z,0.80
2018-12-13T07:34:03.511Z,0.80
2018-12-13T07:36:39.692Z,0.80
2018-12-13T07:39:15.536Z,0.80
2018-12-13T07:41:51.418Z,0.80
2018-12-13T07:44:27.435Z,0.80
2018-12-13T07:47:03.782Z,0.90
2018-12-13T07:49:40.025Z,0.90
2018-12-13T07:52:15.951Z,0.90
2018-12-13T07:54:52.249Z,0.90
2018-12-13T07:57:28.045Z,0.90
2018-12-13T08:00:04.748Z,1.00
2018-12-13T08:02:40.982Z,1.00
2018-12-13T08:05:17.944Z,1.00
2018-12-13T08:07:54.094Z,1.00
2018-12-13T08:10:30.168Z,1.00
2018-12-13T08:13:06.196Z,1.00
2018-12-13T08:15:42.303Z,1.00
2018-12-13T08:18:18.233Z,1.10
2018-12-13T08:20:56.160Z,1.10
2018-12-13T08:23:32.830Z,1.10
2018-12-13T08:26:08.750Z,1.10
2018-12-13T08:28:44.775Z,1.10
2018-12-13T08:31:20.561Z,1.10
2018-12-13T08:33:56.172Z,1.10
2018-12-13T08:36:32.188Z,1.10
2018-12-13T08:39:10.016Z,1.20
2018-12-13T08:41:47.811Z,1.10
2018-12-13T08:44:24.004Z,1.20
2018-12-13T08:46:59.850Z,1.20
2018-12-13T08:49:36.889Z,1.10
2018-12-13T08:52:12.877Z,1.20
2018-12-13T08:54:48.974Z,1.20
2018-12-13T08:57:25.580Z,1.20
2018-12-13T09:00:01.518Z,1.20
2018-12-13T09:02:38.301Z,1.20
2018-12-13T09:05:14.379Z,1.30
2018-12-13T09:07:50.438Z,1.30
2018-12-13T09:10:26.248Z,1.30
2018-12-13T09:13:02.241Z,1.40
2018-12-13T09:15:38.127Z,1.40
2018-12-13T09:18:13.981Z,1.40
2018-12-13T09:20:49.612Z,1.50
2018-12-13T09:23:25.663Z,1.50
2018-12-13T09:26:01.449Z,1.50
2018-12-13T09:28:37.176Z,1.60
2018-12-13T09:31:13.494Z,1.50
2018-12-13T09:33:49.209Z,1.60
2018-12-13T09:36:25.033Z,1.60
2018-12-13T09:39:00.765Z,1.60
2018-12-13T09:41:36.841Z,1.60
2018-12-13T09:44:16.813Z,1.60
2018-12-13T09:46:52.528Z,1.60
2018-12-13T09:49:28.631Z,1.60
2018-12-13T09:52:04.567Z,1.60
2018-12-13T09:54:40.156Z,1.60
2018-12-13T09:57:16.968Z,1.60
2018-12-13T09:59:53.555Z,1.60
2018-12-13T10:02:30.381Z,1.60
2018-12-13T10:05:06.435Z,1.60
2018-12-13T10:07:42.011Z,1.60
2018-12-13T10:10:18.279Z,1.60
2018-12-13T10:12:54.901Z,1.60
2018-12-13T10:15:32.228Z,1.60
2018-12-13T10:18:08.723Z,1.60
2018-12-13T10:20:45.634Z,1.60
2018-12-13T10:23:21.898Z,1.60
2018-12-13T10:25:59.634Z,1.60
2018-12-13T10:28:36.423Z,1.60
2018-12-13T10:31:12.593Z,1.70
2018-12-13T10:33:48.525Z,1.60
2018-12-13T10:36:25.680Z,1.70
2018-12-13T10:39:01.867Z,1.70
2018-12-13T10:41:39.327Z,1.70
2018-12-13T10:44:18.235Z,1.60
2018-12-13T10:46:54.291Z,1.60
2018-12-13T10:49:30.439Z,1.60
2018-12-13T10:52:06.352Z,1.60
2018-12-13T10:54:43.312Z,1.60
2018-12-13T10:57:19.194Z,1.60
2018-12-13T10:59:54.912Z,1.60
2018-12-13T11:02:43.047Z,1.70
2018-12-13T11:05:19.075Z,1.70
2018-12-13T11:07:55.026Z,1.70
2018-12-13T11:10:31.299Z,1.70
2018-12-13T11:13:08.030Z,1.70
2018-12-13T11:15:43.780Z,1.80
2018-12-13T11:18:19.565Z,1.80
2018-12-13T11:20:55.351Z,1.80
2018-12-13T11:23:30.980Z,1.80
2018-12-13T11:26:07.372Z,1.90
2018-12-13T11:29:57.014Z,1.90
2018-12-13T11:32:33.713Z,2.00
2018-12-13T11:35:09.926Z,2.10
2018-12-13T11:37:46.033Z,2.10
2018-12-13T11:40:22.009Z,2.10
2018-12-13T11:42:58.109Z,2.10
2018-12-13T11:45:34.002Z,2.20
2018-12-13T11:48:09.939Z,2.20
2018-12-13T11:50:46.020Z,2.20
2018-12-13T11:53:21.656Z,2.30
2018-12-13T11:55:57.463Z,2.30
2018-12-13T11:58:33.123Z,2.30
2018-12-13T12:01:08.988Z,2.30
2018-12-13T12:03:45.056Z,2.30
2018-12-13T12:06:21.392Z,2.30
2018-12-13T12:08:58.750Z,2.30
2018-12-13T12:11:34.657Z,2.30
2018-12-13T12:14:10.788Z,2.30
2018-12-13T12:16:46.794Z,2.30
2018-12-13T12:19:23.031Z,2.30
2018-12-13T12:21:59.356Z,2.30
2018-12-13T12:24:36.426Z,2.30
2018-12-13T12:27:11.923Z,2.30
2018-12-13T12:29:48.048Z,2.30
2018-12-13T12:32:24.028Z,2.30
2018-12-13T12:34:59.976Z,2.30
2018-12-13T12:37:36.221Z,2.30
2018-12-13T12:40:12.388Z,2.20
2018-12-13T12:42:48.738Z,2.30
2018-12-13T12:45:25.077Z,2.20
2018-12-13T12:48:01.926Z,2.20
2018-12-13T12:50:38.628Z,2.20
2018-12-13T12:53:15.861Z,2.20
2018-12-13T12:55:52.258Z,2.20
2018-12-13T12:58:28.014Z,2.20
2018-12-13T13:01:04.068Z,2.20
2018-12-13T13:03:39.842Z,2.20
2018-12-13T13:06:15.617Z,2.20
2018-12-13T13:08:52.551Z,2.20
2018-12-13T13:11:28.568Z,2.20
2018-12-13T13:14:04.484Z,2.20
2018-12-13T13:16:40.182Z,2.20
2018-12-13T13:19:16.194Z,2.20
2018-12-13T13:21:51.920Z,2.20
2018-12-13T13:24:30.126Z,2.20
2018-12-13T13:27:06.668Z,2.20
2018-12-13T13:29:42.599Z,2.20
2018-12-13T13:32:18.567Z,2.20
2018-12-13T13:34:54.205Z,2.20
2018-12-13T13:37:30.194Z,2.10
2018-12-13T13:40:06.281Z,2.10
2018-12-13T13:42:42.106Z,2.10
2018-12-13T13:45:18.148Z,2.10
2018-12-13T13:47:54.652Z,2.10
2018-12-13T13:50:30.346Z,2.10
2018-12-13T13:53:07.524Z,2.10
2018-12-13T13:55:43.533Z,2.10
2018-12-13T13:58:19.365Z,2.00
2018-12-13T14:00:55.441Z,2.00
2018-12-13T14:03:31.300Z,2.00
2018-12-13T14:06:06.974Z,2.00
2018-12-13T14:08:42.922Z,2.00
2018-12-13T14:11:18.928Z,2.00
2018-12-13T14:13:54.751Z,2.00
2018-12-13T14:16:31.714Z,2.00
2018-12-13T14:19:08.229Z,1.90
2018-12-13T14:21:45.239Z,1.90
2018-12-13T14:24:21.834Z,1.90
2018-12-13T14:26:57.760Z,1.90
2018-12-13T14:29:34.269Z,1.90
2018-12-13T14:32:10.399Z,1.90
2018-12-13T14:34:46.801Z,1.90
2018-12-13T14:37:23.325Z,1.90
2018-12-13T14:40:00.698Z,1.90
2018-12-13T14:42:40.607Z,1.90
2018-12-13T14:45:16.610Z,1.80
2018-12-13T14:47:53.252Z,1.80
2018-12-13T14:50:29.505Z,1.80
2018-12-13T14:53:07.070Z,1.80
2018-12-13T14:55:45.134Z,1.80
2018-12-13T14:58:21.851Z,1.80
2018-12-13T15:00:58.849Z,1.80
2018-12-13T15:03:35.400Z,1.80
2018-12-13T15:06:11.761Z,1.80
2018-12-13T15:08:48.161Z,1.80
2018-12-13T15:11:24.129Z,1.80
2018-12-13T15:13:59.608Z,1.70
2018-12-13T15:16:35.699Z,1.80
2018-12-13T15:19:11.607Z,1.70
2018-12-13T15:21:48.202Z,1.70
2018-12-13T15:24:24.349Z,1.70
2018-12-13T15:27:00.911Z,1.70
2018-12-13T15:29:36.958Z,1.70
2018-12-13T15:32:13.040Z,1.70
2018-12-13T15:34:49.583Z,1.70
2018-12-13T15:37:25.678Z,1.70
2018-12-13T15:40:01.989Z,1.60
2018-12-13T15:42:38.332Z,1.60
2018-12-13T15:45:14.155Z,1.60
2018-12-13T15:47:50.416Z,1.60
2018-12-13T15:50:26.747Z,1.60
2018-12-13T15:53:03.456Z,1.50
2018-12-13T15:55:39.713Z,1.50
2018-12-13T15:58:15.628Z,1.60
2018-12-13T16:00:51.728Z,1.50
2018-12-13T16:03:27.339Z,1.60
2018-12-13T16:06:03.291Z,1.60
2018-12-13T16:08:39.531Z,1.60
2018-12-13T16:11:15.960Z,1.50
2018-12-13T16:13:52.672Z,1.60
2018-12-13T16:16:29.031Z,1.50
2018-12-13T16:19:04.633Z,1.50
2018-12-13T16:21:40.852Z,1.50
2018-12-13T16:24:17.727Z,1.50
2018-12-13T16:26:54.433Z,1.50
2018-12-13T16:29:30.408Z,1.50
2018-12-13T16:32:06.335Z,1.50
2018-12-13T16:34:42.067Z,1.50
2018-12-13T16:37:18.297Z,1.50
2018-12-13T16:39:54.648Z,1.50
2018-12-13T16:42:30.795Z,1.50
2018-12-13T16:45:07.367Z,1.50
2018-12-13T16:47:43.861Z,1.50
2018-12-13T16:50:21.547Z,1.50
2018-12-13T16:52:58.638Z,1.50
2018-12-13T16:55:36.531Z,1.50
2018-12-13T16:58:12.695Z,1.50
2018-12-13T17:00:48.394Z,1.50
2018-12-13T17:03:36.990Z,1.50
2018-12-13T17:06:13.296Z,1.50
2018-12-13T17:08:49.605Z,1.50
2018-12-13T17:11:26.035Z,1.50
2018-12-13T17:14:03.074Z,1.50
2018-12-13T17:16:39.653Z,1.50
2018-12-13T17:19:16.413Z,1.50
2018-12-13T17:21:52.579Z,1.50
2018-12-13T17:24:29.336Z,1.50
2018-12-13T17:27:05.728Z,1.50
2018-12-13T17:29:42.589Z,1.50
2018-12-13T17:32:18.981Z,1.50
2018-12-13T17:34:56.645Z,1.50
2018-12-13T17:37:32.609Z,1.50
2018-12-13T17:40:09.928Z,1.50
2018-12-13T17:42:46.089Z,1.50
2018-12-13T17:45:21.806Z,1.50
2018-12-13T17:47:57.916Z,1.50
2018-12-13T17:50:35.413Z,1.50
2018-12-13T17:53:11.839Z,1.50
2018-12-13T17:55:48.826Z,1.50
2018-12-13T17:58:25.266Z,1.50
2018-12-13T18:01:01.059Z,1.50
2018-12-13T18:03:37.646Z,1.50
2018-12-13T18:06:13.994Z,1.50
2018-12-13T18:08:51.221Z,1.50
2018-12-13T18:11:27.758Z,1.50
2018-12-13T18:14:03.859Z,1.50
2018-12-13T18:16:43.364Z,1.50
2018-12-13T18:19:17.651Z,1.50
2018-12-13T18:21:53.622Z,1.50
2018-12-13T18:24:30.287Z,1.50
2018-12-13T18:27:06.470Z,1.50
2018-12-13T18:29:42.932Z,1.50
2018-12-13T18:32:19.530Z,1.50
2018-12-13T18:34:56.718Z,1.50
2018-12-13T18:37:32.483Z,1.50
2018-12-13T18:40:09.386Z,1.50
2018-12-13T18:42:45.670Z,1.50
2018-12-13T18:45:24.073Z,1.50
2018-12-13T18:48:00.882Z,1.50
2018-12-13T18:50:38.864Z,1.50
2018-12-13T18:53:15.491Z,1.50
2018-12-13T18:55:52.283Z,1.50
2018-12-13T18:58:28.633Z,1.50
2018-12-13T19:01:05.164Z,1.60
2018-12-13T19:03:40.895Z,1.50
2018-12-13T19:06:16.979Z,1.60
2018-12-13T19:08:52.791Z,1.50
2018-12-13T19:11:28.813Z,1.50
2018-12-13T19:14:05.652Z,1.50
2018-12-13T19:16:41.900Z,1.50
2018-12-13T19:19:18.542Z,1.50
2018-12-13T19:21:54.343Z,1.50
2018-12-13T19:24:30.229Z,1.50
2018-12-13T19:27:06.916Z,1.50
2018-12-13T19:29:42.983Z,1.50
2018-12-13T19:32:19.444Z,1.40
2018-12-13T19:35:00.272Z,1.40
2018-12-13T19:37:34.409Z,1.40
2018-12-13T19:40:12.063Z,1.50
2018-12-13T19:42:47.800Z,1.40
2018-12-13T19:45:24.324Z,1.40
2018-12-13T19:48:00.554Z,1.40
2018-12-13T19:50:37.762Z,1.40
2018-12-13T19:53:14.383Z,1.40
2018-12-13T19:55:50.995Z,1.40
2018-12-13T19:58:26.928Z,1.40
2018-12-13T20:01:02.786Z,1.40
2018-12-13T20:03:39.715Z,1.40
2018-12-13T20:06:15.817Z,1.40
2018-12-13T20:08:51.575Z,1.40
2018-12-13T20:11:27.608Z,1.40
2018-12-13T20:14:04.286Z,1.40
2018-12-13T20:16:40.090Z,1.40
2018-12-13T20:19:15.781Z,1.40
2018-12-13T20:21:51.663Z,1.40
2018-12-13T20:24:28.479Z,1.40
2018-12-13T20:27:04.692Z,1.40
2018-12-13T20:29:41.082Z,1.40
2018-12-13T20:32:17.486Z,1.40
2018-12-13T20:34:53.222Z,1.40
2018-12-13T20:37:29.362Z,1.40
2018-12-13T20:40:06.031Z,1.40
2018-12-13T20:42:41.835Z,1.40
2018-12-13T20:45:17.732Z,1.40
2018-12-13T20:47:54.497Z,1.40
2018-12-13T20:50:31.442Z,1.40
2018-12-13T20:53:07.871Z,1.40
2018-12-13T20:55:44.216Z,1.40
2018-12-13T20:58:20.777Z,1.40
2018-12-13T21:00:56.825Z,1.40
2018-12-13T21:03:33.405Z,1.40
2018-12-13T21:06:09.554Z,1.40
2018-12-13T21:08:45.213Z,1.40
2018-12-13T21:11:21.611Z,1.40
2018-12-13T21:13:58.169Z,1.40
2018-12-13T21:16:33.995Z,1.40
2018-12-13T21:19:10.704Z,1.40
2018-12-13T21:21:46.796Z,1.40
2018-12-13T21:24:22.553Z,1.30
2018-12-13T21:26:58.241Z,1.30
2018-12-13T21:29:34.293Z,1.30
2018-12-13T21:32:10.560Z,1.30
2018-12-13T21:34:47.090Z,1.40
2018-12-13T21:37:23.140Z,1.30
2018-12-13T21:39:59.241Z,1.30
2018-12-13T21:42:35.750Z,1.30
2018-12-13T21:45:11.934Z,1.30
2018-12-13T21:47:47.920Z,1.30
2018-12-13T21:50:23.938Z,1.30
2018-12-13T21:52:59.827Z,1.30
2018-12-13T21:55:35.886Z,1.30
2018-12-13T21:58:11.999Z,1.30
2018-12-13T22:00:47.750Z,1.30
2018-12-13T22:03:23.622Z,1.30
2018-12-13T22:05:59.722Z,1.30
2018-12-13T22:08:35.835Z,1.30
2018-12-13T22:11:12.157Z,1.30
2018-12-13T22:13:48.694Z,1.30
2018-12-13T22:16:25.223Z,1.30
2018-12-13T22:19:01.522Z,1.30
2018-12-13T22:21:38.115Z,1.30
2018-12-13T22:24:14.067Z,1.30
2018-12-13T22:26:50.752Z,1.30
2018-12-13T22:29:27.711Z,1.30
2018-12-13T22:32:04.262Z,1.30
2018-12-13T22:34:40.693Z,1.30
2018-12-13T22:37:17.307Z,1.30
2018-12-13T22:39:53.850Z,1.30
2018-12-13T22:42:30.110Z,1.30
2018-12-13T22:45:06.550Z,1.40
2018-12-13T22:47:42.735Z,1.40
2018-12-13T22:50:19.005Z,1.40
2018-12-13T22:52:55.660Z,1.30
2018-12-13T22:55:31.425Z,1.40
2018-12-13T22:58:07.949Z,1.40
2018-12-13T23:00:44.494Z,1.30
2018-12-13T23:03:23.096Z,1.40
2018-12-13T23:05:58.954Z,1.30
2018-12-13T23:08:35.110Z,1.40
2018-12-13T23:11:11.395Z,1.40
2018-12-13T23:13:47.386Z,1.40
2018-12-13T23:16:23.796Z,1.40
2018-12-13T23:19:00.400Z,1.40
2018-12-13T23:21:36.317Z,1.30
2018-12-13T23:24:12.252Z,1.30
2018-12-13T23:26:48.365Z,1.40
2018-12-13T23:29:24.279Z,1.40
2018-12-13T23:32:00.228Z,1.40
2018-12-13T23:34:36.097Z,1.40
2018-12-13T23:37:12.071Z,1.40
2018-12-13T23:39:48.660Z,1.40
2018-12-13T23:42:25.121Z,1.40
2018-12-13T23:45:01.643Z,1.40
2018-12-13T23:47:38.059Z,1.40
2018-12-13T23:50:13.743Z,1.40
2018-12-13T23:52:51.846Z,1.40
2018-12-13T23:55:29.072Z,1.40
2018-12-13T23:58:06.312Z,1.40
